sensor_id;sensor_type;location;lat;lon;timestamp;P1;durP1;ratioP1;P2;durP2;ratioP2
63010;SDS011;49100;48.842;2.166;2022-09-17T00:01:16;9.75;;;7.25;;
63010;SDS011;49100;48.842;2.166;2022-09-17T00:04:02;4.00;;;2.00;;
63010;SDS011;49100;48.842;2.166;2022-09-17T00:06:47;9.25;;;6.25;;
63010;SDS011;49100;48.842;2.166;2022-09-17T00:09:31;6.00;;;4.75;;
63010;SDS011;49100;48.842;2.166;2022-09-17T00:12:17;7.00;;;5.00;;
63010;SDS011;49100;48.842;2.166;2022-09-17T00:15:01;6.00;;;5.75;;
63010;SDS011;49100;48.842;2.166;2022-09-17T00:17:46;10.25;;;8.75;;
63010;SDS011;49100;48.842;2.166;2022-09-17T00:20:30;8.00;;;7.00;;
63010;SDS011;49100;48.842;2.166;2022-09-17T00:23:15;8.00;;;7.50;;
63010;SDS011;49100;48.842;2.166;2022-09-17T00:26:03;7.50;;;7.50;;
63010;SDS011;49100;48.842;2.166;2022-09-17T00:28:50;6.25;;;6.00;;
63010;SDS011;49100;48.842;2.166;2022-09-17T00:31:35;9.50;;;6.50;;
63010;SDS011;49100;48.842;2.166;2022-09-17T00:34:20;12.25;;;9.25;;
63010;SDS011;49100;48.842;2.166;2022-09-17T00:37:04;9.00;;;7.00;;
63010;SDS011;49100;48.842;2.166;2022-09-17T00:39:49;8.25;;;6.00;;
63010;SDS011;49100;48.842;2.166;2022-09-17T00:42:33;8.75;;;6.00;;
63010;SDS011;49100;48.842;2.166;2022-09-17T00:45:18;7.75;;;7.00;;
63010;SDS011;49100;48.842;2.166;2022-09-17T00:48:04;8.75;;;6.00;;
63010;SDS011;49100;48.842;2.166;2022-09-17T00:50:49;12.25;;;8.25;;
63010;SDS011;49100;48.842;2.166;2022-09-17T00:53:35;9.50;;;6.75;;
63010;SDS011;49100;48.842;2.166;2022-09-17T00:56:23;10.25;;;6.50;;
63010;SDS011;49100;48.842;2.166;2022-09-17T00:59:10;10.50;;;6.50;;
63010;SDS011;49100;48.842;2.166;2022-09-17T01:01:54;11.25;;;6.50;;
63010;SDS011;49100;48.842;2.166;2022-09-17T01:04:39;10.75;;;8.50;;
63010;SDS011;49100;48.842;2.166;2022-09-17T01:13:34;13.00;;;7.00;;
63010;SDS011;49100;48.842;2.166;2022-09-17T01:22:52;12.25;;;8.00;;
63010;SDS011;49100;48.842;2.166;2022-09-17T01:29:13;10.25;;;7.00;;
63010;SDS011;49100;48.842;2.166;2022-09-17T01:32:35;7.00;;;6.75;;
63010;SDS011;49100;48.842;2.166;2022-09-17T01:35:36;12.50;;;7.50;;
63010;SDS011;49100;48.842;2.166;2022-09-17T01:38:53;8.50;;;7.00;;
63010;SDS011;49100;48.842;2.166;2022-09-17T01:41:52;10.00;;;8.00;;
63010;SDS011;49100;48.842;2.166;2022-09-17T01:48:05;11.75;;;7.50;;
63010;SDS011;49100;48.842;2.166;2022-09-17T01:50:58;11.25;;;8.00;;
63010;SDS011;49100;48.842;2.166;2022-09-17T01:57:04;10.50;;;9.25;;
63010;SDS011;49100;48.842;2.166;2022-09-17T02:00:09;12.75;;;10.25;;
63010;SDS011;49100;48.842;2.166;2022-09-17T02:02:59;12.00;;;6.00;;
63010;SDS011;49100;48.842;2.166;2022-09-17T02:05:49;14.00;;;8.25;;
63010;SDS011;49100;48.842;2.166;2022-09-17T02:08:52;11.75;;;9.75;;
63010;SDS011;49100;48.842;2.166;2022-09-17T02:11:39;12.00;;;9.00;;
63010;SDS011;49100;48.842;2.166;2022-09-17T02:14:28;17.00;;;10.25;;
63010;SDS011;49100;48.842;2.166;2022-09-17T02:17:24;15.50;;;10.25;;
63010;SDS011;49100;48.842;2.166;2022-09-17T02:20:13;15.00;;;10.00;;
63010;SDS011;49100;48.842;2.166;2022-09-17T02:22:58;12.00;;;8.00;;
63010;SDS011;49100;48.842;2.166;2022-09-17T02:25:50;8.75;;;7.25;;
63010;SDS011;49100;48.842;2.166;2022-09-17T02:31:27;9.75;;;7.00;;
63010;SDS011;49100;48.842;2.166;2022-09-17T02:34:11;9.00;;;8.00;;
63010;SDS011;49100;48.842;2.166;2022-09-17T02:36:55;9.75;;;6.50;;
63010;SDS011;49100;48.842;2.166;2022-09-17T02:39:43;9.25;;;6.00;;
63010;SDS011;49100;48.842;2.166;2022-09-17T02:49:10;8.00;;;6.25;;
63010;SDS011;49100;48.842;2.166;2022-09-17T02:55:23;9.00;;;7.00;;
63010;SDS011;49100;48.842;2.166;2022-09-17T03:01:10;10.25;;;7.25;;
63010;SDS011;49100;48.842;2.166;2022-09-17T03:40:59;11.00;;;6.75;;
63010;SDS011;49100;48.842;2.166;2022-09-17T03:43:46;11.25;;;8.25;;
63010;SDS011;49100;48.842;2.166;2022-09-17T03:46:31;8.75;;;6.00;;
63010;SDS011;49100;48.842;2.166;2022-09-17T03:49:15;12.00;;;7.00;;
63010;SDS011;49100;48.842;2.166;2022-09-17T03:52:00;9.00;;;9.00;;
63010;SDS011;49100;48.842;2.166;2022-09-17T03:54:45;11.00;;;10.00;;
63010;SDS011;49100;48.842;2.166;2022-09-17T03:57:30;9.25;;;6.50;;
63010;SDS011;49100;48.842;2.166;2022-09-17T04:00:14;7.50;;;6.75;;
63010;SDS011;49100;48.842;2.166;2022-09-17T04:03:00;9.75;;;7.50;;
63010;SDS011;49100;48.842;2.166;2022-09-17T04:05:44;8.75;;;8.25;;
63010;SDS011;49100;48.842;2.166;2022-09-17T04:08:29;9.00;;;9.00;;
63010;SDS011;49100;48.842;2.166;2022-09-17T04:11:13;7.50;;;7.00;;
63010;SDS011;49100;48.842;2.166;2022-09-17T04:13:58;9.25;;;7.75;;
63010;SDS011;49100;48.842;2.166;2022-09-17T04:16:42;11.75;;;10.00;;
63010;SDS011;49100;48.842;2.166;2022-09-17T04:19:26;9.25;;;7.00;;
63010;SDS011;49100;48.842;2.166;2022-09-17T04:22:11;12.75;;;9.50;;
63010;SDS011;49100;48.842;2.166;2022-09-17T04:24:56;10.25;;;9.75;;
63010;SDS011;49100;48.842;2.166;2022-09-17T04:27:40;13.75;;;10.75;;
63010;SDS011;49100;48.842;2.166;2022-09-17T04:30:25;15.50;;;14.00;;
63010;SDS011;49100;48.842;2.166;2022-09-17T04:33:09;16.00;;;12.50;;
63010;SDS011;49100;48.842;2.166;2022-09-17T04:35:54;11.00;;;11.00;;
63010;SDS011;49100;48.842;2.166;2022-09-17T04:38:38;14.50;;;10.00;;
63010;SDS011;49100;48.842;2.166;2022-09-17T04:41:23;9.00;;;9.00;;
63010;SDS011;49100;48.842;2.166;2022-09-17T04:44:07;9.75;;;8.50;;
63010;SDS011;49100;48.842;2.166;2022-09-17T04:46:52;10.00;;;8.75;;
63010;SDS011;49100;48.842;2.166;2022-09-17T04:49:36;9.00;;;8.00;;
63010;SDS011;49100;48.842;2.166;2022-09-17T04:52:20;12.75;;;9.75;;
63010;SDS011;49100;48.842;2.166;2022-09-17T04:55:05;14.75;;;12.00;;
63010;SDS011;49100;48.842;2.166;2022-09-17T04:57:51;19.00;;;13.50;;
63010;SDS011;49100;48.842;2.166;2022-09-17T05:00:36;15.50;;;12.25;;
63010;SDS011;49100;48.842;2.166;2022-09-17T05:03:21;16.75;;;12.75;;
63010;SDS011;49100;48.842;2.166;2022-09-17T05:06:05;11.00;;;10.25;;
63010;SDS011;49100;48.842;2.166;2022-09-17T05:08:50;13.00;;;13.00;;
63010;SDS011;49100;48.842;2.166;2022-09-17T05:11:34;18.75;;;13.00;;
63010;SDS011;49100;48.842;2.166;2022-09-17T05:14:19;14.50;;;11.50;;
63010;SDS011;49100;48.842;2.166;2022-09-17T05:17:03;14.00;;;11.50;;
63010;SDS011;49100;48.842;2.166;2022-09-17T05:19:48;11.75;;;11.75;;
63010;SDS011;49100;48.842;2.166;2022-09-17T05:22:32;12.50;;;10.75;;
63010;SDS011;49100;48.842;2.166;2022-09-17T05:25:18;12.75;;;12.75;;
63010;SDS011;49100;48.842;2.166;2022-09-17T05:28:06;12.50;;;12.25;;
63010;SDS011;49100;48.842;2.166;2022-09-17T05:30:51;14.00;;;14.00;;
63010;SDS011;49100;48.842;2.166;2022-09-17T05:33:36;15.25;;;13.50;;
63010;SDS011;49100;48.842;2.166;2022-09-17T05:36:20;19.75;;;17.00;;
63010;SDS011;49100;48.842;2.166;2022-09-17T05:39:04;17.25;;;14.00;;
63010;SDS011;49100;48.842;2.166;2022-09-17T05:41:50;19.75;;;16.25;;
63010;SDS011;49100;48.842;2.166;2022-09-17T05:44:35;55.25;;;43.50;;
63010;SDS011;49100;48.842;2.166;2022-09-17T05:47:19;43.50;;;32.50;;
63010;SDS011;49100;48.842;2.166;2022-09-17T05:50:04;17.00;;;15.50;;
63010;SDS011;49100;48.842;2.166;2022-09-17T05:52:49;17.50;;;14.50;;
63010;SDS011;49100;48.842;2.166;2022-09-17T05:55:34;16.25;;;14.25;;
63010;SDS011;49100;48.842;2.166;2022-09-17T05:58:19;12.50;;;12.00;;
63010;SDS011;49100;48.842;2.166;2022-09-17T06:01:03;12.25;;;12.00;;
63010;SDS011;49100;48.842;2.166;2022-09-17T06:03:48;17.25;;;15.75;;
63010;SDS011;49100;48.842;2.166;2022-09-17T06:06:32;16.25;;;16.25;;
63010;SDS011;49100;48.842;2.166;2022-09-17T06:09:17;19.75;;;16.25;;
63010;SDS011;49100;48.842;2.166;2022-09-17T06:12:02;19.25;;;14.75;;
63010;SDS011;49100;48.842;2.166;2022-09-17T06:14:47;14.00;;;12.25;;
63010;SDS011;49100;48.842;2.166;2022-09-17T06:17:33;17.00;;;14.00;;
63010;SDS011;49100;48.842;2.166;2022-09-17T06:20:18;20.00;;;16.00;;
63010;SDS011;49100;48.842;2.166;2022-09-17T06:23:03;17.25;;;17.00;;
63010;SDS011;49100;48.842;2.166;2022-09-17T06:25:55;18.25;;;16.25;;
63010;SDS011;49100;48.842;2.166;2022-09-17T06:28:41;19.25;;;15.25;;
63010;SDS011;49100;48.842;2.166;2022-09-17T06:31:25;28.50;;;19.00;;
63010;SDS011;49100;48.842;2.166;2022-09-17T06:34:10;21.50;;;18.00;;
63010;SDS011;49100;48.842;2.166;2022-09-17T06:36:55;23.75;;;23.00;;
63010;SDS011;49100;48.842;2.166;2022-09-17T06:39:39;27.50;;;22.75;;
63010;SDS011;49100;48.842;2.166;2022-09-17T06:42:24;22.50;;;19.50;;
63010;SDS011;49100;48.842;2.166;2022-09-17T06:45:09;22.00;;;20.75;;
63010;SDS011;49100;48.842;2.166;2022-09-17T06:47:53;23.25;;;20.50;;
63010;SDS011;49100;48.842;2.166;2022-09-17T06:50:38;26.50;;;22.50;;
63010;SDS011;49100;48.842;2.166;2022-09-17T06:53:23;29.00;;;26.75;;
63010;SDS011;49100;48.842;2.166;2022-09-17T06:56:08;26.50;;;22.75;;
63010;SDS011;49100;48.842;2.166;2022-09-17T06:58:53;27.50;;;26.50;;
63010;SDS011;49100;48.842;2.166;2022-09-17T07:01:37;31.75;;;27.75;;
63010;SDS011;49100;48.842;2.166;2022-09-17T07:04:21;28.50;;;27.25;;
63010;SDS011;49100;48.842;2.166;2022-09-17T07:07:06;31.00;;;28.50;;
63010;SDS011;49100;48.842;2.166;2022-09-17T07:09:51;36.00;;;29.25;;
63010;SDS011;49100;48.842;2.166;2022-09-17T07:12:39;37.75;;;31.75;;
63010;SDS011;49100;48.842;2.166;2022-09-17T07:15:24;27.25;;;24.25;;
63010;SDS011;49100;48.842;2.166;2022-09-17T07:18:09;25.50;;;22.00;;
63010;SDS011;49100;48.842;2.166;2022-09-17T07:20:55;20.25;;;17.75;;
63010;SDS011;49100;48.842;2.166;2022-09-17T07:23:41;19.25;;;18.75;;
63010;SDS011;49100;48.842;2.166;2022-09-17T07:26:25;28.50;;;22.75;;
63010;SDS011;49100;48.842;2.166;2022-09-17T07:29:10;26.50;;;21.25;;
63010;SDS011;49100;48.842;2.166;2022-09-17T07:31:55;19.50;;;15.00;;
63010;SDS011;49100;48.842;2.166;2022-09-17T07:34:42;26.00;;;25.00;;
63010;SDS011;49100;48.842;2.166;2022-09-17T07:37:26;16.75;;;16.00;;
63010;SDS011;49100;48.842;2.166;2022-09-17T07:40:11;20.00;;;18.00;;
63010;SDS011;49100;48.842;2.166;2022-09-17T07:42:58;19.75;;;18.75;;
63010;SDS011;49100;48.842;2.166;2022-09-17T07:45:43;27.00;;;21.50;;
63010;SDS011;49100;48.842;2.166;2022-09-17T07:48:27;19.50;;;18.25;;
63010;SDS011;49100;48.842;2.166;2022-09-17T07:51:19;22.75;;;18.75;;
63010;SDS011;49100;48.842;2.166;2022-09-17T07:54:06;19.00;;;18.25;;
63010;SDS011;49100;48.842;2.166;2022-09-17T07:56:50;21.75;;;18.00;;
63010;SDS011;49100;48.842;2.166;2022-09-17T07:59:35;19.00;;;17.00;;
63010;SDS011;49100;48.842;2.166;2022-09-17T08:02:19;19.25;;;16.00;;
63010;SDS011;49100;48.842;2.166;2022-09-17T08:05:04;22.00;;;19.00;;
63010;SDS011;49100;48.842;2.166;2022-09-17T08:07:49;19.00;;;17.00;;
63010;SDS011;49100;48.842;2.166;2022-09-17T08:10:34;13.00;;;11.00;;
63010;SDS011;49100;48.842;2.166;2022-09-17T08:13:19;10.75;;;9.00;;
63010;SDS011;49100;48.842;2.166;2022-09-17T08:16:05;18.25;;;10.25;;
63010;SDS011;49100;48.842;2.166;2022-09-17T08:18:55;12.00;;;9.75;;
63010;SDS011;49100;48.842;2.166;2022-09-17T08:21:40;16.25;;;11.00;;
63010;SDS011;49100;48.842;2.166;2022-09-17T08:24:24;14.00;;;12.00;;
63010;SDS011;49100;48.842;2.166;2022-09-17T08:27:10;11.50;;;10.25;;
63010;SDS011;49100;48.842;2.166;2022-09-17T08:29:54;11.50;;;11.50;;
63010;SDS011;49100;48.842;2.166;2022-09-17T08:32:39;16.00;;;14.50;;
63010;SDS011;49100;48.842;2.166;2022-09-17T08:35:23;15.25;;;11.50;;
63010;SDS011;49100;48.842;2.166;2022-09-17T08:38:08;12.25;;;12.00;;
63010;SDS011;49100;48.842;2.166;2022-09-17T08:41:06;17.50;;;10.75;;
63010;SDS011;49100;48.842;2.166;2022-09-17T08:50:02;11.50;;;10.75;;
63010;SDS011;49100;48.842;2.166;2022-09-17T08:56:06;14.00;;;11.25;;
63010;SDS011;49100;48.842;2.166;2022-09-17T09:05:04;11.50;;;9.75;;
63010;SDS011;49100;48.842;2.166;2022-09-17T09:08:01;19.75;;;17.00;;
63010;SDS011;49100;48.842;2.166;2022-09-17T09:11:20;24.75;;;14.50;;
63010;SDS011;49100;48.842;2.166;2022-09-17T09:17:07;17.50;;;11.00;;
63010;SDS011;49100;48.842;2.166;2022-09-17T09:19:52;12.75;;;9.00;;
63010;SDS011;49100;48.842;2.166;2022-09-17T09:22:49;16.25;;;9.75;;
63010;SDS011;49100;48.842;2.166;2022-09-17T09:25:38;11.50;;;11.50;;
63010;SDS011;49100;48.842;2.166;2022-09-17T09:28:32;13.50;;;11.25;;
63010;SDS011;49100;48.842;2.166;2022-09-17T09:34:44;14.75;;;10.00;;
63010;SDS011;49100;48.842;2.166;2022-09-17T09:37:30;14.00;;;11.75;;
63010;SDS011;49100;48.842;2.166;2022-09-17T09:40:40;13.75;;;10.75;;
63010;SDS011;49100;48.842;2.166;2022-09-17T09:49:27;14.00;;;8.25;;
63010;SDS011;49100;48.842;2.166;2022-09-17T09:52:40;9.00;;;6.50;;
63010;SDS011;49100;48.842;2.166;2022-09-17T09:58:50;11.00;;;10.00;;
63010;SDS011;49100;48.842;2.166;2022-09-17T10:01:35;12.50;;;8.75;;
63010;SDS011;49100;48.842;2.166;2022-09-17T10:04:24;9.75;;;8.50;;
63010;SDS011;49100;48.842;2.166;2022-09-17T10:07:11;8.75;;;8.25;;
63010;SDS011;49100;48.842;2.166;2022-09-17T10:09:55;19.50;;;9.00;;
63010;SDS011;49100;48.842;2.166;2022-09-17T10:13:05;9.75;;;9.00;;
63010;SDS011;49100;48.842;2.166;2022-09-17T10:15:50;10.25;;;8.75;;
63010;SDS011;49100;48.842;2.166;2022-09-17T10:18:34;11.75;;;7.75;;
63010;SDS011;49100;48.842;2.166;2022-09-17T10:21:20;10.25;;;9.00;;
63010;SDS011;49100;48.842;2.166;2022-09-17T10:24:23;12.25;;;12.25;;
63010;SDS011;49100;48.842;2.166;2022-09-17T10:27:12;9.50;;;8.00;;
63010;SDS011;49100;48.842;2.166;2022-09-17T10:33:17;13.50;;;9.25;;
63010;SDS011;49100;48.842;2.166;2022-09-17T10:36:05;11.75;;;10.25;;
63010;SDS011;49100;48.842;2.166;2022-09-17T10:38:53;11.00;;;7.25;;
63010;SDS011;49100;48.842;2.166;2022-09-17T10:41:37;12.75;;;9.25;;
63010;SDS011;49100;48.842;2.166;2022-09-17T10:44:59;10.25;;;7.75;;
63010;SDS011;49100;48.842;2.166;2022-09-17T10:47:44;8.50;;;6.75;;
63010;SDS011;49100;48.842;2.166;2022-09-17T10:50:30;7.00;;;5.50;;
63010;SDS011;49100;48.842;2.166;2022-09-17T10:53:16;8.50;;;8.00;;
63010;SDS011;49100;48.842;2.166;2022-09-17T10:56:34;9.00;;;7.75;;
63010;SDS011;49100;48.842;2.166;2022-09-17T11:02:44;9.50;;;5.25;;
63010;SDS011;49100;48.842;2.166;2022-09-17T11:12:41;5.75;;;5.75;;
63010;SDS011;49100;48.842;2.166;2022-09-17T11:25:58;9.50;;;7.00;;
63010;SDS011;49100;48.842;2.166;2022-09-17T11:31:55;9.75;;;9.25;;
63010;SDS011;49100;48.842;2.166;2022-09-17T11:38:42;7.50;;;7.50;;
63010;SDS011;49100;48.842;2.166;2022-09-17T11:41:18;11.50;;;8.25;;
63010;SDS011;49100;48.842;2.166;2022-09-17T11:50:09;10.25;;;8.00;;
63010;SDS011;49100;48.842;2.166;2022-09-17T11:53:14;10.00;;;9.50;;
63010;SDS011;49100;48.842;2.166;2022-09-17T11:56:17;11.00;;;9.50;;
63010;SDS011;49100;48.842;2.166;2022-09-17T11:59:14;9.50;;;9.00;;
63010;SDS011;49100;48.842;2.166;2022-09-17T12:02:25;9.75;;;7.00;;
63010;SDS011;49100;48.842;2.166;2022-09-17T12:11:51;10.00;;;7.00;;
63010;SDS011;49100;48.842;2.166;2022-09-17T12:14:43;6.75;;;6.75;;
63010;SDS011;49100;48.842;2.166;2022-09-17T12:17:53;9.50;;;7.00;;
63010;SDS011;49100;48.842;2.166;2022-09-17T12:20:48;8.25;;;7.00;;
63010;SDS011;49100;48.842;2.166;2022-09-17T12:23:43;12.50;;;10.00;;
63010;SDS011;49100;48.842;2.166;2022-09-17T12:36:05;13.00;;;9.00;;
63010;SDS011;49100;48.842;2.166;2022-09-17T12:39:05;5.50;;;5.00;;
63010;SDS011;49100;48.842;2.166;2022-09-17T12:55:19;14.25;;;10.00;;
63010;SDS011;49100;48.842;2.166;2022-09-17T13:03:52;11.25;;;6.25;;
63010;SDS011;49100;48.842;2.166;2022-09-17T13:06:59;6.75;;;6.75;;
63010;SDS011;49100;48.842;2.166;2022-09-17T13:10:07;10.50;;;7.00;;
63010;SDS011;49100;48.842;2.166;2022-09-17T13:13:14;9.50;;;6.00;;
63010;SDS011;49100;48.842;2.166;2022-09-17T13:22:30;12.25;;;7.25;;
63010;SDS011;49100;48.842;2.166;2022-09-17T13:25:18;13.50;;;7.50;;
63010;SDS011;49100;48.842;2.166;2022-09-17T13:28:06;9.75;;;8.75;;
63010;SDS011;49100;48.842;2.166;2022-09-17T13:30:59;8.00;;;6.50;;
63010;SDS011;49100;48.842;2.166;2022-09-17T13:34:02;8.75;;;7.50;;
63010;SDS011;49100;48.842;2.166;2022-09-17T13:36:56;6.00;;;6.00;;
63010;SDS011;49100;48.842;2.166;2022-09-17T13:39:43;11.00;;;8.25;;
63010;SDS011;49100;48.842;2.166;2022-09-17T13:42:41;11.25;;;9.50;;
63010;SDS011;49100;48.842;2.166;2022-09-17T13:45:28;10.75;;;9.25;;
63010;SDS011;49100;48.842;2.166;2022-09-17T13:48:12;6.75;;;5.50;;
63010;SDS011;49100;48.842;2.166;2022-09-17T13:51:50;6.00;;;6.00;;
63010;SDS011;49100;48.842;2.166;2022-09-17T13:54:15;8.50;;;7.50;;
63010;SDS011;49100;48.842;2.166;2022-09-17T13:57:03;12.25;;;9.00;;
63010;SDS011;49100;48.842;2.166;2022-09-17T13:59:52;10.00;;;9.00;;
63010;SDS011;49100;48.842;2.166;2022-09-17T14:02:38;8.00;;;5.50;;
63010;SDS011;49100;48.842;2.166;2022-09-17T14:05:30;7.75;;;7.75;;
63010;SDS011;49100;48.842;2.166;2022-09-17T14:08:27;8.75;;;8.75;;
63010;SDS011;49100;48.842;2.166;2022-09-17T14:16:56;11.25;;;7.00;;
63010;SDS011;49100;48.842;2.166;2022-09-17T14:19:46;9.75;;;7.75;;
63010;SDS011;49100;48.842;2.166;2022-09-17T14:22:32;12.25;;;11.00;;
63010;SDS011;49100;48.842;2.166;2022-09-17T14:25:25;10.75;;;10.75;;
63010;SDS011;49100;48.842;2.166;2022-09-17T14:31:32;6.00;;;6.00;;
63010;SDS011;49100;48.842;2.166;2022-09-17T14:34:20;11.00;;;9.00;;
63010;SDS011;49100;48.842;2.166;2022-09-17T14:37:06;12.25;;;7.25;;
63010;SDS011;49100;48.842;2.166;2022-09-17T14:39:54;8.00;;;7.25;;
63010;SDS011;49100;48.842;2.166;2022-09-17T14:42:39;12.50;;;8.25;;
63010;SDS011;49100;48.842;2.166;2022-09-17T14:45:31;10.00;;;9.00;;
63010;SDS011;49100;48.842;2.166;2022-09-17T14:48:29;10.00;;;8.00;;
63010;SDS011;49100;48.842;2.166;2022-09-17T14:56:55;8.25;;;8.00;;
63010;SDS011;49100;48.842;2.166;2022-09-17T15:02:36;12.50;;;7.75;;
63010;SDS011;49100;48.842;2.166;2022-09-17T15:08:12;9.00;;;9.00;;
63010;SDS011;49100;48.842;2.166;2022-09-17T15:11:02;14.75;;;10.50;;
63010;SDS011;49100;48.842;2.166;2022-09-17T15:13:52;12.00;;;10.00;;
63010;SDS011;49100;48.842;2.166;2022-09-17T15:16:37;8.50;;;8.00;;
63010;SDS011;49100;48.842;2.166;2022-09-17T15:22:32;8.25;;;8.25;;
63010;SDS011;49100;48.842;2.166;2022-09-17T15:25:20;9.00;;;9.00;;
63010;SDS011;49100;48.842;2.166;2022-09-17T15:31:15;13.75;;;7.50;;
63010;SDS011;49100;48.842;2.166;2022-09-17T15:34:01;10.25;;;7.25;;
63010;SDS011;49100;48.842;2.166;2022-09-17T15:39:50;13.00;;;13.00;;
63010;SDS011;49100;48.842;2.166;2022-09-17T15:42:37;14.50;;;9.75;;
63010;SDS011;49100;48.842;2.166;2022-09-17T15:45:25;10.75;;;7.75;;
63010;SDS011;49100;48.842;2.166;2022-09-17T15:54:28;10.50;;;8.50;;
63010;SDS011;49100;48.842;2.166;2022-09-17T15:57:14;9.25;;;6.25;;
63010;SDS011;49100;48.842;2.166;2022-09-17T16:00:33;9.50;;;7.25;;
63010;SDS011;49100;48.842;2.166;2022-09-17T16:09:34;17.50;;;14.00;;
63010;SDS011;49100;48.842;2.166;2022-09-17T16:12:23;11.00;;;11.00;;
63010;SDS011;49100;48.842;2.166;2022-09-17T16:15:09;14.25;;;14.25;;
63010;SDS011;49100;48.842;2.166;2022-09-17T16:17:56;15.50;;;13.50;;
63010;SDS011;49100;48.842;2.166;2022-09-17T16:20:40;13.75;;;12.50;;
63010;SDS011;49100;48.842;2.166;2022-09-17T16:23:25;15.25;;;11.00;;
63010;SDS011;49100;48.842;2.166;2022-09-17T16:26:29;12.50;;;11.00;;
63010;SDS011;49100;48.842;2.166;2022-09-17T16:29:14;13.25;;;10.75;;
63010;SDS011;49100;48.842;2.166;2022-09-17T16:32:01;19.00;;;15.50;;
63010;SDS011;49100;48.842;2.166;2022-09-17T16:34:46;16.50;;;14.25;;
63010;SDS011;49100;48.842;2.166;2022-09-17T16:37:30;16.00;;;13.75;;
63010;SDS011;49100;48.842;2.166;2022-09-17T16:40:16;13.25;;;10.00;;
63010;SDS011;49100;48.842;2.166;2022-09-17T16:43:01;14.75;;;9.75;;
63010;SDS011;49100;48.842;2.166;2022-09-17T16:45:58;14.00;;;10.25;;
63010;SDS011;49100;48.842;2.166;2022-09-17T16:48:44;13.25;;;11.75;;
63010;SDS011;49100;48.842;2.166;2022-09-17T16:51:32;16.00;;;12.25;;
63010;SDS011;49100;48.842;2.166;2022-09-17T16:54:17;14.50;;;9.75;;
63010;SDS011;49100;48.842;2.166;2022-09-17T16:57:01;15.50;;;11.75;;
63010;SDS011;49100;48.842;2.166;2022-09-17T16:59:46;17.25;;;11.25;;
63010;SDS011;49100;48.842;2.166;2022-09-17T17:02:30;14.25;;;11.25;;
63010;SDS011;49100;48.842;2.166;2022-09-17T17:05:15;10.75;;;9.75;;
63010;SDS011;49100;48.842;2.166;2022-09-17T17:07:59;9.25;;;9.25;;
63010;SDS011;49100;48.842;2.166;2022-09-17T17:10:44;12.00;;;9.25;;
63010;SDS011;49100;48.842;2.166;2022-09-17T17:13:32;12.75;;;11.75;;
63010;SDS011;49100;48.842;2.166;2022-09-17T17:16:17;15.50;;;11.50;;
63010;SDS011;49100;48.842;2.166;2022-09-17T17:19:02;13.75;;;11.25;;
63010;SDS011;49100;48.842;2.166;2022-09-17T17:21:48;11.50;;;9.50;;
63010;SDS011;49100;48.842;2.166;2022-09-17T17:24:33;13.50;;;10.50;;
63010;SDS011;49100;48.842;2.166;2022-09-17T17:27:17;13.00;;;11.00;;
63010;SDS011;49100;48.842;2.166;2022-09-17T17:30:02;15.00;;;10.50;;
63010;SDS011;49100;48.842;2.166;2022-09-17T17:32:50;17.75;;;14.25;;
63010;SDS011;49100;48.842;2.166;2022-09-17T17:35:37;14.75;;;10.00;;
63010;SDS011;49100;48.842;2.166;2022-09-17T17:38:22;12.75;;;10.75;;
63010;SDS011;49100;48.842;2.166;2022-09-17T17:41:10;19.50;;;14.00;;
63010;SDS011;49100;48.842;2.166;2022-09-17T17:44:00;17.75;;;13.75;;
63010;SDS011;49100;48.842;2.166;2022-09-17T17:46:45;11.75;;;10.75;;
63010;SDS011;49100;48.842;2.166;2022-09-17T17:49:30;16.75;;;12.50;;
63010;SDS011;49100;48.842;2.166;2022-09-17T17:52:14;17.50;;;9.50;;
63010;SDS011;49100;48.842;2.166;2022-09-17T17:54:59;11.25;;;10.00;;
63010;SDS011;49100;48.842;2.166;2022-09-17T17:57:43;15.25;;;11.50;;
63010;SDS011;49100;48.842;2.166;2022-09-17T18:00:28;11.00;;;10.00;;
63010;SDS011;49100;48.842;2.166;2022-09-17T18:03:12;15.75;;;13.25;;
63010;SDS011;49100;48.842;2.166;2022-09-17T18:05:56;12.00;;;12.00;;
63010;SDS011;49100;48.842;2.166;2022-09-17T18:08:42;14.75;;;13.50;;
63010;SDS011;49100;48.842;2.166;2022-09-17T18:11:27;15.25;;;13.50;;
63010;SDS011;49100;48.842;2.166;2022-09-17T18:14:12;12.50;;;11.75;;
63010;SDS011;49100;48.842;2.166;2022-09-17T18:16:56;15.00;;;10.75;;
63010;SDS011;49100;48.842;2.166;2022-09-17T18:19:41;14.25;;;9.50;;
63010;SDS011;49100;48.842;2.166;2022-09-17T18:22:25;11.25;;;9.75;;
63010;SDS011;49100;48.842;2.166;2022-09-17T18:25:10;9.25;;;7.50;;
63010;SDS011;49100;48.842;2.166;2022-09-17T18:27:55;6.00;;;4.75;;
63010;SDS011;49100;48.842;2.166;2022-09-17T18:30:39;11.50;;;9.00;;
63010;SDS011;49100;48.842;2.166;2022-09-17T18:33:25;9.00;;;7.75;;
63010;SDS011;49100;48.842;2.166;2022-09-17T18:36:10;6.25;;;6.25;;
63010;SDS011;49100;48.842;2.166;2022-09-17T18:38:55;10.75;;;7.00;;
63010;SDS011;49100;48.842;2.166;2022-09-17T18:41:44;8.50;;;7.25;;
63010;SDS011;49100;48.842;2.166;2022-09-17T18:44:28;8.50;;;8.50;;
63010;SDS011;49100;48.842;2.166;2022-09-17T18:47:13;6.25;;;6.00;;
63010;SDS011;49100;48.842;2.166;2022-09-17T18:49:57;6.25;;;6.25;;
63010;SDS011;49100;48.842;2.166;2022-09-17T18:52:42;12.75;;;8.75;;
63010;SDS011;49100;48.842;2.166;2022-09-17T18:55:26;13.50;;;9.50;;
63010;SDS011;49100;48.842;2.166;2022-09-17T18:58:12;12.25;;;9.00;;
63010;SDS011;49100;48.842;2.166;2022-09-17T19:00:56;11.75;;;9.75;;
63010;SDS011;49100;48.842;2.166;2022-09-17T19:03:41;11.25;;;9.00;;
63010;SDS011;49100;48.842;2.166;2022-09-17T19:06:26;11.50;;;8.50;;
63010;SDS011;49100;48.842;2.166;2022-09-17T19:09:11;9.75;;;8.25;;
63010;SDS011;49100;48.842;2.166;2022-09-17T19:11:55;10.00;;;9.00;;
63010;SDS011;49100;48.842;2.166;2022-09-17T19:14:40;10.00;;;6.75;;
63010;SDS011;49100;48.842;2.166;2022-09-17T19:17:24;10.75;;;8.50;;
63010;SDS011;49100;48.842;2.166;2022-09-17T19:20:09;9.25;;;7.25;;
63010;SDS011;49100;48.842;2.166;2022-09-17T19:22:53;13.25;;;9.75;;
63010;SDS011;49100;48.842;2.166;2022-09-17T19:25:38;8.50;;;7.25;;
63010;SDS011;49100;48.842;2.166;2022-09-17T19:28:22;12.75;;;10.00;;
63010;SDS011;49100;48.842;2.166;2022-09-17T19:31:07;14.00;;;8.75;;
63010;SDS011;49100;48.842;2.166;2022-09-17T19:33:53;9.50;;;7.25;;
63010;SDS011;49100;48.842;2.166;2022-09-17T19:36:37;12.75;;;9.75;;
63010;SDS011;49100;48.842;2.166;2022-09-17T19:39:22;14.25;;;10.75;;
63010;SDS011;49100;48.842;2.166;2022-09-17T19:42:08;22.75;;;18.75;;
63010;SDS011;49100;48.842;2.166;2022-09-17T19:44:52;19.50;;;17.25;;
63010;SDS011;49100;48.842;2.166;2022-09-17T19:47:36;17.50;;;10.25;;
63010;SDS011;49100;48.842;2.166;2022-09-17T19:50:21;12.75;;;10.75;;
63010;SDS011;49100;48.842;2.166;2022-09-17T19:53:06;9.25;;;9.25;;
63010;SDS011;49100;48.842;2.166;2022-09-17T19:55:50;11.75;;;9.25;;
63010;SDS011;49100;48.842;2.166;2022-09-17T19:58:34;10.00;;;7.50;;
63010;SDS011;49100;48.842;2.166;2022-09-17T20:01:19;17.00;;;11.25;;
63010;SDS011;49100;48.842;2.166;2022-09-17T20:04:03;15.00;;;10.00;;
63010;SDS011;49100;48.842;2.166;2022-09-17T20:06:49;9.00;;;9.00;;
63010;SDS011;49100;48.842;2.166;2022-09-17T20:09:34;10.50;;;8.00;;
63010;SDS011;49100;48.842;2.166;2022-09-17T20:12:18;9.25;;;8.00;;
63010;SDS011;49100;48.842;2.166;2022-09-17T20:15:02;8.25;;;7.00;;
63010;SDS011;49100;48.842;2.166;2022-09-17T20:17:47;21.75;;;10.00;;
63010;SDS011;49100;48.842;2.166;2022-09-17T20:20:32;11.50;;;8.00;;
63010;SDS011;49100;48.842;2.166;2022-09-17T20:23:16;17.00;;;11.25;;